Time;durP1;ratioP1;P1;durP2;ratioP2;P2;SDS_P1;SDS_P2;PMS_P1;PMS_P2;Temp;Humidity;BMP_temperature;BMP_pressure;BME280_temperature;BME280_humidity;BME280_pressure;Samples;Min_cycle;Max_cycle;Signal;HPM_P1;HPM_P2
2021/04/27 02:01:55;;;;;;;6.60;5.82;;;31.70;92.80;;;;;;5092437;28;20281;-50
2021/04/27 02:04:27;;;;;;;6.70;6.10;;;31.70;92.80;;;;;;5093879;28;20236;-52
2021/04/27 02:06:57;;;;;;;6.65;6.13;;;31.80;92.80;;;;;;5093034;28;20204;-51
2021/04/27 02:09:30;;;;;;;7.28;6.57;;;31.80;92.70;;;;;;5093937;28;20200;-51
2021/04/27 02:12:10;;;;;;;7.40;6.80;;;31.90;92.60;;;;;;5092832;28;20255;-50
2021/04/27 02:14:40;;;;;;;7.05;6.50;;;32.00;92.30;;;;;;5092084;28;20292;-50
2021/04/27 02:17:15;;;;;;;6.70;6.13;;;32.10;92.60;;;;;;5093379;28;20212;-50
2021/04/27 02:19:45;;;;;;;8.00;7.25;;;32.10;92.40;;;;;;5093331;28;20960;-51
2021/04/27 02:22:15;;;;;;;7.20;6.60;;;32.20;92.50;;;;;;5030032;28;20210;-53
2021/04/27 02:24:46;;;;;;;7.57;6.97;;;32.30;92.30;;;;;;5030095;28;20666;-54
2021/04/27 02:27:16;;;;;;;7.25;6.68;;;32.40;92.20;;;;;;5030425;28;20608;-49
2021/04/27 02:29:47;;;;;;;7.20;6.57;;;32.50;92.10;;;;;;5031001;28;20199;-54
2021/04/27 02:32:18;;;;;;;6.78;6.28;;;32.50;91.90;;;;;;5029174;28;20213;-48
2021/04/27 02:34:49;;;;;;;7.30;6.57;;;32.60;91.80;;;;;;5030294;28;20658;-53
2021/04/27 02:37:20;;;;;;;7.13;6.57;;;32.70;91.50;;;;;;5029669;28;20206;-52
2021/04/27 02:39:56;;;;;;;6.93;6.43;;;32.80;91.20;;;;;;5029978;28;20803;-48
2021/04/27 02:42:26;;;;;;;7.53;6.93;;;32.80;90.80;;;;;;5028917;28;20254;-49
2021/04/27 02:44:57;;;;;;;7.28;6.68;;;32.90;90.60;;;;;;5028773;28;20203;-51
2021/04/27 02:47:28;;;;;;;7.75;7.15;;;32.90;90.60;;;;;;5077538;28;20569;-49
2021/04/27 02:49:59;;;;;;;8.00;7.30;;;33.00;90.30;;;;;;5091608;28;20750;-50
2021/04/27 02:52:29;;;;;;;8.57;6.65;;;33.10;90.30;;;;;;5091727;28;20633;-48
2021/04/27 02:54:59;;;;;;;8.00;6.70;;;33.10;90.40;;;;;;5091611;28;20216;-54
2021/04/27 02:57:30;;;;;;;7.25;6.47;;;33.20;90.40;;;;;;5092066;28;20200;-52
2021/04/27 03:00:01;;;;;;;7.57;6.90;;;33.20;90.40;;;;;;5091135;28;20223;-50
2021/04/27 03:02:32;;;;;;;7.63;6.82;;;33.30;90.50;;;;;;5091581;28;20240;-49
2021/04/27 03:05:03;;;;;;;7.85;7.05;;;33.40;90.60;;;;;;5091888;28;20197;-53
2021/04/27 03:07:34;;;;;;;7.18;6.57;;;33.50;90.70;;;;;;5084676;28;20235;-48
2021/04/27 03:10:05;;;;;;;7.93;7.22;;;33.50;90.60;;;;;;5091545;28;20193;-50
2021/04/27 03:12:35;;;;;;;9.13;8.15;;;33.60;90.70;;;;;;5091556;28;20668;-49
2021/04/27 03:15:07;;;;;;;8.27;7.47;;;33.60;90.60;;;;;;5091583;28;20228;-51
2021/04/27 03:17:38;;;;;;;7.93;7.10;;;33.70;90.30;;;;;;5090751;28;20197;-51
2021/04/27 03:20:10;;;;;;;8.00;7.30;;;33.80;89.80;;;;;;5092181;28;20213;-48
2021/04/27 03:22:40;;;;;;;9.18;8.38;;;33.80;89.40;;;;;;5091635;28;20275;-49
2021/04/27 03:25:12;;;;;;;8.30;7.47;;;33.80;88.00;;;;;;5092225;28;20226;-50
2021/04/27 03:27:43;;;;;;;9.60;8.63;;;33.90;87.30;;;;;;5091637;28;20197;-48
2021/04/27 03:30:14;;;;;;;8.40;7.68;;;33.90;87.10;;;;;;5091651;28;20641;-49
2021/04/27 03:32:45;;;;;;;7.95;7.25;;;33.90;87.70;;;;;;5091767;28;20201;-50
2021/04/27 03:35:16;;;;;;;24.40;22.38;;;34.00;88.00;;;;;;5091197;28;20583;-49
2021/04/27 03:37:46;;;;;;;14.10;12.73;;;34.10;88.50;;;;;;5091273;28;20647;-51
2021/04/27 03:40:16;;;;;;;10.50;9.50;;;34.10;87.00;;;;;;5091079;28;20244;-49
2021/04/27 03:42:47;;;;;;;14.32;13.15;;;34.20;86.60;;;;;;5091621;28;20207;-50
2021/04/27 03:45:18;;;;;;;13.50;12.30;;;34.30;86.60;;;;;;5091185;28;20307;-49
2021/04/27 03:47:49;;;;;;;11.27;10.27;;;34.40;86.70;;;;;;5091777;28;20209;-48
2021/04/27 03:50:21;;;;;;;10.52;9.60;;;34.50;86.50;;;;;;5091413;28;20193;-51
2021/04/27 03:52:52;;;;;;;10.73;9.77;;;34.60;85.20;;;;;;5092423;28;20201;-53
2021/04/27 03:55:24;;;;;;;11.00;9.93;;;34.60;83.60;;;;;;5091435;28;20209;-48
2021/04/27 03:57:55;;;;;;;9.80;8.95;;;34.60;82.70;;;;;;5092113;28;20255;-50
2021/04/27 04:00:26;;;;;;;10.23;9.38;;;34.70;82.30;;;;;;5091269;28;20224;-49
2021/04/27 04:02:57;;;;;;;9.68;8.68;;;34.70;82.50;;;;;;5085206;28;20636;-48
2021/04/27 04:05:28;;;;;;;9.23;8.43;;;34.80;82.20;;;;;;5091742;28;20203;-50
2021/04/27 04:07:59;;;;;;;9.32;8.60;;;34.80;82.00;;;;;;5084640;28;20628;-50
2021/04/27 04:10:29;;;;;;;9.40;8.60;;;34.80;82.00;;;;;;5092162;28;20200;-50
2021/04/27 04:13:00;;;;;;;9.30;8.50;;;34.90;81.90;;;;;;5091744;28;20203;-49
2021/04/27 04:15:31;;;;;;;8.82;8.15;;;34.90;81.20;;;;;;5091751;28;20207;-51
2021/04/27 04:18:02;;;;;;;9.45;8.65;;;34.90;81.00;;;;;;5091962;28;20232;-52
2021/04/27 04:20:33;;;;;;;9.05;8.32;;;35.00;80.20;;;;;;5092402;28;20219;-51
2021/04/27 04:23:03;;;;;;;9.32;8.55;;;35.00;80.90;;;;;;5091962;28;20225;-49
2021/04/27 04:25:33;;;;;;;9.18;8.45;;;35.10;80.80;;;;;;5092311;28;20197;-52
2021/04/27 04:28:04;;;;;;;9.43;8.57;;;35.10;80.40;;;;;;5092443;28;20208;-50
2021/04/27 04:30:34;;;;;;;9.35;8.45;;;35.20;80.50;;;;;;5095776;28;20193;-50
2021/04/27 04:33:07;;;;;;;9.30;8.60;;;35.30;80.40;;;;;;5096051;28;20197;-48
2021/04/27 04:35:38;;;;;;;9.90;9.00;;;35.30;79.40;;;;;;5095879;28;20311;-50
2021/04/27 04:38:08;;;;;;;9.55;8.85;;;35.40;77.60;;;;;;5097148;28;20201;-51
2021/04/27 04:40:39;;;;;;;9.55;8.55;;;35.40;77.00;;;;;;5095650;28;20311;-50
2021/04/27 04:43:09;;;;;;;11.32;10.32;;;35.50;76.60;;;;;;5096032;28;20288;-48
2021/04/27 04:45:39;;;;;;;10.18;9.27;;;35.50;75.00;;;;;;5095483;28;20633;-51
2021/04/27 04:48:11;;;;;;;10.23;9.32;;;35.50;75.50;;;;;;5096439;28;20211;-51
2021/04/27 04:50:42;;;;;;;9.25;8.35;;;35.60;74.70;;;;;;5095229;28;20632;-54
2021/04/27 04:53:12;;;;;;;8.52;7.82;;;35.60;75.50;;;;;;5095860;28;20696;-48
2021/04/27 04:55:42;;;;;;;10.50;9.45;;;35.60;75.40;;;;;;5095621;28;20193;-53
2021/04/27 04:58:13;;;;;;;10.73;9.73;;;35.50;74.60;;;;;;5088338;28;20197;-52
2021/04/27 05:00:43;;;;;;;9.05;8.32;;;35.50;74.10;;;;;;5095179;28;20208;-50
2021/04/27 05:03:15;;;;;;;9.57;8.77;;;35.50;74.20;;;;;;5095019;28;20287;-51
2021/04/27 05:05:45;;;;;;;9.80;8.98;;;35.60;74.30;;;;;;5095263;28;20199;-51
2021/04/27 05:08:22;;;;;;;9.68;8.77;;;35.50;74.00;;;;;;5094881;28;20211;-50
2021/04/27 05:10:52;;;;;;;10.55;9.63;;;35.60;74.30;;;;;;5094494;28;20610;-50
2021/04/27 05:13:22;;;;;;;8.70;8.10;;;35.50;72.80;;;;;;5094331;28;20295;-50
2021/04/27 05:15:53;;;;;;;8.57;7.78;;;35.50;73.40;;;;;;5095202;28;20255;-52
2021/04/27 05:18:25;;;;;;;9.60;8.80;;;35.60;74.20;;;;;;5094967;28;20208;-50
2021/04/27 05:20:55;;;;;;;9.65;8.40;;;35.60;73.80;;;;;;5095628;28;20215;-48
2021/04/27 05:23:26;;;;;;;9.30;8.55;;;35.60;73.40;;;;;;5095132;28;20228;-49
2021/04/27 05:25:56;;;;;;;9.60;8.80;;;35.70;73.20;;;;;;5095193;28;20256;-50
2021/04/27 05:28:27;;;;;;;9.40;8.60;;;35.70;73.60;;;;;;5094873;28;20201;-49
2021/04/27 05:30:58;;;;;;;9.75;8.95;;;35.70;73.20;;;;;;5098117;28;20253;-51
2021/04/27 05:33:31;;;;;;;9.35;8.57;;;35.80;72.40;;;;;;5095379;28;20625;-49
2021/04/27 05:36:01;;;;;;;12.43;11.43;;;35.80;71.40;;;;;;5096900;28;20289;-50
2021/04/27 05:38:32;;;;;;;15.10;13.65;;;35.80;71.90;;;;;;5098898;28;20287;-53
2021/04/27 05:41:03;;;;;;;13.60;12.40;;;35.80;72.50;;;;;;5098103;28;20388;-54
2021/04/27 05:43:36;;;;;;;13.55;12.20;;;35.80;73.10;;;;;;5096593;28;20199;-53
2021/04/27 05:46:06;;;;;;;11.68;10.65;;;35.80;72.80;;;;;;5095186;28;20216;-53
2021/04/27 05:48:38;;;;;;;12.38;11.20;;;35.80;72.90;;;;;;5094693;28;20608;-52
2021/04/27 05:51:08;;;;;;;11.70;10.70;;;35.80;72.50;;;;;;5094493;28;20197;-51
2021/04/27 05:53:38;;;;;;;13.98;12.77;;;35.80;72.90;;;;;;5094773;28;20835;-53
2021/04/27 05:56:09;;;;;;;12.90;11.75;;;35.80;73.00;;;;;;5094223;28;20200;-51
2021/04/27 05:58:39;;;;;;;11.75;10.82;;;35.80;73.70;;;;;;5087772;28;20197;-49
2021/04/27 06:01:10;;;;;;;12.40;11.30;;;35.80;73.80;;;;;;5094806;28;20209;-51
2021/04/27 06:03:41;;;;;;;12.23;11.18;;;35.80;73.80;;;;;;5093876;28;20256;-50
2021/04/27 06:06:12;;;;;;;10.95;10.02;;;35.70;73.30;;;;;;5094498;28;20207;-50
2021/04/27 06:08:43;;;;;;;12.02;10.82;;;35.80;74.00;;;;;;5094259;28;20201;-47
2021/04/27 06:11:14;;;;;;;14.32;13.07;;;35.70;73.90;;;;;;5094288;28;20250;-52
2021/04/27 06:13:44;;;;;;;11.48;10.45;;;35.70;73.90;;;;;;5093613;28;20232;-49
2021/04/27 06:16:14;;;;;;;13.65;12.25;;;35.70;73.80;;;;;;5094901;28;20654;-48
2021/04/27 06:18:46;;;;;;;15.00;13.60;;;35.70;73.80;;;;;;5093863;28;20205;-50
2021/04/27 06:21:16;;;;;;;11.63;10.52;;;35.70;73.60;;;;;;5093961;28;20213;-48
2021/04/27 06:23:46;;;;;;;12.68;11.60;;;35.60;73.80;;;;;;5096209;28;20201;-51
2021/04/27 06:26:17;;;;;;;12.27;11.32;;;35.60;74.20;;;;;;5097236;28;20209;-52
2021/04/27 06:28:49;;;;;;;12.10;10.98;;;35.50;73.90;;;;;;5097728;28;20284;-52
2021/04/27 06:31:20;;;;;;;11.70;10.52;;;35.50;74.00;;;;;;5097056;28;20231;-49
2021/04/27 06:33:51;;;;;;;11.25;10.25;;;35.40;73.70;;;;;;5097556;28;20200;-49
2021/04/27 06:36:23;;;;;;;11.45;10.55;;;35.40;73.60;;;;;;5097249;28;21133;-48
2021/04/27 06:38:54;;;;;;;10.63;9.73;;;35.30;73.00;;;;;;5098486;28;20201;-51
2021/04/27 06:41:25;;;;;;;8.38;7.75;;;35.30;72.70;;;;;;5097898;28;20244;-51
2021/04/27 06:43:55;;;;;;;9.10;8.30;;;35.30;73.30;;;;;;5097883;28;20906;-50
2021/04/27 06:46:26;;;;;;;9.65;8.85;;;35.20;74.10;;;;;;5097807;28;20205;-49
2021/04/27 06:48:58;;;;;;;10.85;9.93;;;35.20;74.60;;;;;;5087455;28;20207;-50
2021/04/27 06:51:29;;;;;;;10.57;9.68;;;35.20;75.20;;;;;;5093629;28;20625;-49
2021/04/27 06:53:59;;;;;;;11.00;10.02;;;35.20;75.50;;;;;;5085519;28;20562;-50
2021/04/27 06:56:30;;;;;;;10.25;9.45;;;35.20;75.40;;;;;;5093327;28;20209;-48
2021/04/27 06:59:01;;;;;;;11.48;10.48;;;35.10;75.50;;;;;;5092985;28;20212;-52
2021/04/27 07:01:31;;;;;;;11.07;10.00;;;35.10;75.80;;;;;;5092246;28;20243;-50
2021/04/27 07:04:04;;;;;;;10.25;9.45;;;35.00;76.00;;;;;;5092527;28;20228;-50
2021/04/27 07:06:34;;;;;;;8.82;7.80;;;34.90;76.00;;;;;;5092393;28;20216;-49
2021/04/27 07:09:05;;;;;;;7.03;6.43;;;34.80;75.90;;;;;;5090246;28;20197;-50
2021/04/27 07:11:36;;;;;;;8.93;7.13;;;34.70;76.10;;;;;;5092162;28;20197;-51
2021/04/27 07:14:07;;;;;;;5.93;5.43;;;34.50;76.50;;;;;;5092057;28;20204;-49
2021/04/27 07:16:37;;;;;;;6.50;5.90;;;34.40;76.20;;;;;;5092213;28;20208;-49
2021/04/27 07:19:09;;;;;;;7.25;6.65;;;34.30;75.70;;;;;;5079038;28;20252;-48
2021/04/27 07:21:41;;;;;;;8.40;7.60;;;34.10;76.20;;;;;;5083593;28;20635;-51
2021/04/27 07:24:12;;;;;;;7.57;6.88;;;34.00;76.50;;;;;;5089868;28;20640;-48
2021/04/27 07:26:45;;;;;;;6.78;6.18;;;33.90;77.30;;;;;;5083524;28;20197;-48
2021/04/27 07:29:15;;;;;;;7.07;6.47;;;33.70;77.80;;;;;;5091657;28;20792;-50
2021/04/27 07:31:46;;;;;;;7.90;7.25;;;33.60;78.20;;;;;;5090830;28;20228;-51
2021/04/27 07:34:18;;;;;;;7.15;6.50;;;33.50;78.60;;;;;;5090114;28;20209;-51
2021/04/27 07:36:49;;;;;;;8.30;7.13;;;33.40;79.30;;;;;;5087000;28;20225;-48
2021/04/27 07:39:20;;;;;;;7.88;7.15;;;33.30;79.40;;;;;;5090988;28;20279;-49
2021/04/27 07:41:50;;;;;;;7.70;7.00;;;33.30;79.80;;;;;;5091748;28;20200;-50
2021/04/27 07:44:21;;;;;;;7.15;6.57;;;33.20;80.20;;;;;;5084986;28;20201;-49
2021/04/27 07:46:52;;;;;;;6.97;6.38;;;33.10;80.30;;;;;;5028410;28;20219;-52
2021/04/27 07:49:24;;;;;;;7.50;6.90;;;33.10;80.50;;;;;;5028705;28;20305;-53
2021/04/27 07:51:55;;;;;;;7.13;6.53;;;33.00;80.50;;;;;;5027806;28;20218;-49
2021/04/27 07:54:26;;;;;;;8.15;7.45;;;33.00;80.70;;;;;;5027146;28;20300;-52
2021/04/27 07:56:57;;;;;;;7.05;6.45;;;32.90;80.90;;;;;;5027757;28;20207;-48
2021/04/27 07:59:28;;;;;;;7.35;6.82;;;32.90;81.40;;;;;;5026502;28;20195;-47
2021/04/27 08:01:59;;;;;;;9.25;8.45;;;32.90;82.00;;;;;;5027779;28;20265;-49
2021/04/27 08:04:31;;;;;;;10.20;8.82;;;32.90;82.30;;;;;;5029512;28;20258;-50
2021/04/27 08:07:02;;;;;;;8.27;7.60;;;32.80;82.80;;;;;;5032374;28;20313;-48
2021/04/27 08:09:33;;;;;;;8.18;7.47;;;32.90;82.60;;;;;;5031893;28;20711;-51
2021/04/27 08:12:05;;;;;;;7.95;7.35;;;32.80;82.60;;;;;;5029231;28;20721;-50
2021/04/27 08:14:35;;;;;;;7.85;7.15;;;32.70;82.50;;;;;;5031668;28;20264;-50
2021/04/27 08:17:07;;;;;;;9.20;8.30;;;32.60;82.40;;;;;;5042892;28;20204;-51
2021/04/27 08:19:40;;;;;;;8.25;7.60;;;32.60;81.80;;;;;;5094226;28;20203;-49
2021/04/27 08:22:11;;;;;;;7.95;7.25;;;32.50;81.20;;;;;;5094299;28;20817;-49
2021/04/27 08:24:44;;;;;;;6.70;6.20;;;32.40;80.90;;;;;;5091841;28;20196;-51
2021/04/27 08:27:15;;;;;;;6.13;5.68;;;32.30;80.60;;;;;;5094164;28;20205;-51
2021/04/27 08:29:46;;;;;;;5.80;5.30;;;32.30;81.20;;;;;;5092431;28;20200;-51
2021/04/27 08:32:17;;;;;;;6.18;5.60;;;32.20;81.60;;;;;;5093389;28;20215;-51
2021/04/27 08:34:49;;;;;;;5.65;5.15;;;32.20;82.00;;;;;;5094391;28;20192;-51
2021/04/27 08:37:20;;;;;;;5.13;4.72;;;32.20;81.30;;;;;;5094157;28;20191;-49
2021/04/27 08:39:51;;;;;;;5.38;4.97;;;32.10;81.10;;;;;;5094218;28;20546;-52
2021/04/27 08:42:22;;;;;;;5.35;4.80;;;32.20;80.70;;;;;;5093553;28;20207;-52
2021/04/27 08:44:52;;;;;;;4.82;4.32;;;32.20;80.80;;;;;;5094619;28;20280;-51
2021/04/27 08:47:24;;;;;;;4.97;4.57;;;32.10;80.70;;;;;;5094043;28;20189;-52
2021/04/27 08:49:56;;;;;;;4.32;4.03;;;32.10;80.70;;;;;;5093293;28;20200;-50
2021/04/27 08:52:27;;;;;;;4.80;4.40;;;32.10;81.00;;;;;;5093878;28;20185;-52
2021/04/27 08:54:57;;;;;;;4.45;4.15;;;32.10;80.90;;;;;;5094141;28;20189;-49
2021/04/27 08:57:28;;;;;;;4.30;4.00;;;32.10;81.00;;;;;;5093689;28;20518;-53
2021/04/27 08:59:59;;;;;;;4.05;3.75;;;32.10;81.10;;;;;;5093175;28;20606;-53
2021/04/27 09:02:29;;;;;;;4.45;4.10;;;32.10;81.40;;;;;;5093027;28;20232;-48
2021/04/27 09:05:01;;;;;;;4.30;3.58;;;32.10;81.40;;;;;;5093698;28;20193;-54
2021/04/27 09:07:32;;;;;;;4.38;4.07;;;32.20;81.30;;;;;;5093511;28;20258;-50
2021/04/27 09:10:02;;;;;;;5.07;4.72;;;32.20;81.50;;;;;;5029842;28;20222;-52
2021/04/27 09:12:34;;;;;;;5.75;5.25;;;32.20;81.50;;;;;;5030392;28;20253;-52
2021/04/27 09:15:08;;;;;;;7.28;6.57;;;32.30;81.70;;;;;;5028412;28;20234;-49
2021/04/27 09:17:38;;;;;;;9.18;8.48;;;32.30;82.10;;;;;;5030037;28;20199;-51
2021/04/27 09:20:11;;;;;;;9.30;8.50;;;32.30;82.70;;;;;;5029858;28;20294;-50
2021/04/27 09:22:41;;;;;;;10.13;9.23;;;32.30;84.10;;;;;;5030477;28;20207;-50
2021/04/27 09:25:12;;;;;;;10.10;9.20;;;32.30;83.20;;;;;;5029904;28;20571;-49
2021/04/27 09:27:45;;;;;;;9.23;8.27;;;32.30;83.40;;;;;;5027963;28;20205;-49
2021/04/27 09:30:19;;;;;;;7.40;6.80;;;32.40;83.50;;;;;;5030173;28;20218;-49
2021/04/27 09:32:55;;;;;;;6.55;6.00;;;32.40;83.40;;;;;;5028708;28;20237;-51
2021/04/27 09:35:37;;;;;;;6.60;6.10;;;32.40;83.40;;;;;;5081161;28;20664;-51
2021/04/27 09:38:15;;;;;;;6.10;5.60;;;32.40;83.10;;;;;;5091240;28;20641;-51
2021/04/27 09:40:51;;;;;;;8.18;5.32;;;32.40;83.00;;;;;;5092415;28;20215;-50
2021/04/27 09:43:29;;;;;;;6.07;4.65;;;32.40;83.00;;;;;;5090633;28;20207;-49
2021/04/27 09:46:05;;;;;;;5.72;5.18;;;32.40;83.20;;;;;;5092142;28;20196;-51
2021/04/27 09:48:37;;;;;;;5.38;4.88;;;32.40;83.00;;;;;;5092328;28;20253;-50
2021/04/27 09:51:30;;;;;;;4.63;4.22;;;32.50;83.20;;;;;;5086680;28;20208;-52
2021/04/27 09:54:06;;;;;;;3.97;3.67;;;32.50;83.00;;;;;;5092497;28;20196;-49
2021/04/27 09:56:41;;;;;;;4.25;3.85;;;32.50;82.90;;;;;;5092299;28;20235;-48
2021/04/27 09:59:12;;;;;;;4.50;3.88;;;32.50;82.60;;;;;;5092542;28;20201;-49
2021/04/27 10:01:43;;;;;;;3.72;3.40;;;32.50;82.30;;;;;;5086795;28;20670;-50
2021/04/27 10:04:13;;;;;;;3.08;2.85;;;32.60;81.90;;;;;;5092143;28;20257;-52
2021/04/27 10:06:44;;;;;;;3.20;3.00;;;32.60;81.70;;;;;;5092569;28;20211;-53
2021/04/27 10:09:15;;;;;;;2.90;2.55;;;32.60;81.40;;;;;;5092058;28;20201;-51
2021/04/27 10:11:45;;;;;;;3.00;2.47;;;32.60;81.00;;;;;;5092051;28;20189;-51
2021/04/27 10:14:17;;;;;;;2.63;2.42;;;32.60;80.40;;;;;;5092408;28;20633;-53
2021/04/27 10:16:48;;;;;;;2.28;2.08;;;32.60;79.80;;;;;;5091999;28;20215;-53
2021/04/27 10:19:18;;;;;;;3.40;1.98;;;32.60;79.50;;;;;;5028498;28;20211;-49
2021/04/27 10:21:51;;;;;;;2.67;1.80;;;32.60;79.20;;;;;;5028239;28;20590;-49
2021/04/27 10:24:25;;;;;;;2.58;1.83;;;32.50;79.00;;;;;;5028697;28;20230;-50
2021/04/27 10:26:55;;;;;;;1.70;1.60;;;32.50;78.70;;;;;;5028624;28;20202;-51
2021/04/27 10:29:26;;;;;;;1.90;1.67;;;32.50;78.70;;;;;;5028677;28;20206;-51
2021/04/27 10:32:17;;;;;;;1.85;1.75;;;32.50;78.80;;;;;;5028727;28;20214;-51
2021/04/27 10:35:06;;;;;;;1.90;1.80;;;32.50;78.50;;;;;;5025675;28;20745;-49
2021/04/27 10:38:04;;;;;;;1.75;1.52;;;32.50;78.70;;;;;;5028576;28;20214;-53
2021/04/27 10:40:50;;;;;;;1.80;1.70;;;32.50;78.90;;;;;;5028873;28;20234;-50
2021/04/27 10:43:40;;;;;;;1.70;1.60;;;32.60;78.70;;;;;;5046473;28;20209;-52
2021/04/27 10:46:26;;;;;;;1.77;1.63;;;32.70;78.80;;;;;;5091928;28;20296;-52
2021/04/27 10:49:09;;;;;;;1.70;1.50;;;32.70;78.50;;;;;;5066298;28;20228;-48
2021/04/27 10:51:40;;;;;;;2.50;1.75;;;32.70;78.20;;;;;;5022061;28;20723;-49
2021/04/27 10:54:14;;;;;;;1.65;1.55;;;32.80;78.00;;;;;;5028613;28;21072;-49
2021/04/27 10:56:45;;;;;;;1.70;1.60;;;32.70;77.40;;;;;;5028504;28;20205;-51
2021/04/27 10:59:16;;;;;;;2.45;1.70;;;32.70;77.20;;;;;;5028068;28;20207;-51
2021/04/27 11:01:46;;;;;;;1.67;1.58;;;32.70;77.10;;;;;;5027389;28;20218;-49
2021/04/27 11:04:34;;;;;;;4.18;1.50;;;32.60;77.00;;;;;;5028409;28;20206;-52
2021/04/27 11:07:35;;;;;;;1.63;1.50;;;32.50;77.10;;;;;;5028224;28;20346;-50
2021/04/27 11:10:23;;;;;;;1.60;1.40;;;32.50;77.30;;;;;;5017349;28;20214;-51
2021/04/27 11:13:04;;;;;;;1.75;1.65;;;32.30;77.20;;;;;;5028011;28;20274;-53
2021/04/27 11:15:35;;;;;;;2.42;2.22;;;32.30;77.20;;;;;;5041352;28;20733;-50
2021/04/27 11:18:12;;;;;;;3.30;2.25;;;32.20;77.40;;;;;;5090611;28;20193;-54
2021/04/27 11:21:12;;;;;;;7.30;5.97;;;32.10;77.80;;;;;;5090897;28;20224;-48
2021/04/27 11:23:48;;;;;;;4.20;3.10;;;32.00;78.30;;;;;;5089002;28;20277;-49
2021/04/27 11:26:46;;;;;;;2.33;2.13;;;31.90;78.40;;;;;;5091009;28;20193;-48
2021/04/27 11:29:24;;;;;;;2.55;1.85;;;31.70;78.90;;;;;;5090867;28;20228;-53
2021/04/27 11:32:15;;;;;;;3.15;2.10;;;31.70;78.90;;;;;;5087457;28;20200;-53
2021/04/27 11:34:53;;;;;;;2.78;2.10;;;31.60;79.30;;;;;;5083487;28;20699;-53
2021/04/27 11:37:24;;;;;;;2.40;1.88;;;31.50;79.50;;;;;;5092140;28;20295;-54
2021/04/27 11:39:55;;;;;;;2.72;2.42;;;31.40;79.60;;;;;;5087426;28;20296;-54
2021/04/27 11:42:31;;;;;;;2.00;1.88;;;31.30;80.00;;;;;;5092566;28;20304;-52
2021/04/27 11:45:03;;;;;;;2.20;1.90;;;31.30;80.30;;;;;;5083752;28;20583;-51
2021/04/27 11:47:37;;;;;;;2.08;1.80;;;31.20;80.50;;;;;;5091931;28;20205;-51
2021/04/27 11:50:10;;;;;;;1.77;1.67;;;31.20;80.90;;;;;;5091775;28;20196;-50
2021/04/27 11:52:51;;;;;;;1.80;1.70;;;31.10;80.70;;;;;;5091771;28;20201;-53
2021/04/27 11:55:23;;;;;;;1.75;1.65;;;31.10;81.00;;;;;;5085212;28;20209;-52
2021/04/27 11:58:00;;;;;;;1.85;1.75;;;31.00;81.10;;;;;;5091557;28;20662;-51
2021/04/27 12:00:37;;;;;;;4.38;1.90;;;31.00;81.20;;;;;;5090368;28;20216;-53
2021/04/27 12:03:24;;;;;;;1.65;1.55;;;31.00;81.40;;;;;;5091404;28;20239;-53
2021/04/27 12:05:56;;;;;;;2.35;1.85;;;30.90;81.50;;;;;;5091615;28;20253;-51
2021/04/27 12:08:27;;;;;;;1.85;1.75;;;30.90;81.40;;;;;;5091534;28;20200;-54
2021/04/27 12:11:10;;;;;;;1.75;1.65;;;30.90;81.60;;;;;;5092031;28;20224;-54
2021/04/27 12:13:44;;;;;;;2.00;1.80;;;30.80;82.10;;;;;;5086054;28;20203;-53
2021/04/27 12:16:16;;;;;;;1.92;1.83;;;30.80;82.00;;;;;;5091466;28;20740;-52
2021/04/27 12:19:02;;;;;;;2.38;2.17;;;30.80;82.10;;;;;;5091940;28;20200;-53
2021/04/27 12:21:41;;;;;;;2.40;2.20;;;30.70;82.80;;;;;;5091094;28;20277;-54
2021/04/27 12:24:14;;;;;;;2.25;2.05;;;30.70;82.80;;;;;;5091648;28;20648;-50
2021/04/27 12:26:48;;;;;;;2.00;1.90;;;30.70;82.80;;;;;;5091703;28;20282;-55
2021/04/27 12:29:25;;;;;;;2.63;2.42;;;30.60;83.00;;;;;;5086511;28;20675;-55
2021/04/27 12:31:55;;;;;;;2.60;2.40;;;30.60;83.20;;;;;;5091310;28;20184;-52
2021/04/27 12:34:25;;;;;;;2.50;2.30;;;30.60;83.30;;;;;;5090979;28;20235;-49
2021/04/27 12:36:56;;;;;;;2.80;2.60;;;30.60;83.50;;;;;;5091517;28;20228;-51
2021/04/27 12:39:34;;;;;;;2.83;2.63;;;30.50;83.60;;;;;;5091230;28;21251;-51
2021/04/27 12:42:16;;;;;;;3.22;2.92;;;30.50;84.00;;;;;;5090571;28;20692;-51
2021/04/27 12:44:54;;;;;;;3.58;3.15;;;30.40;84.00;;;;;;5091440;28;20291;-53
2021/04/27 12:47:25;;;;;;;4.90;3.35;;;30.40;84.30;;;;;;5090548;28;20197;-54
2021/04/27 12:50:04;;;;;;;4.25;3.95;;;30.40;84.20;;;;;;5091677;28;20200;-51
2021/04/27 12:52:35;;;;;;;5.70;4.70;;;30.40;84.60;;;;;;5094574;28;20259;-50
2021/04/27 12:55:07;;;;;;;6.20;5.75;;;30.40;84.40;;;;;;5094637;28;20228;-51
2021/04/27 12:57:37;;;;;;;7.20;6.60;;;30.40;84.50;;;;;;5094164;28;20205;-50
2021/04/27 13:00:10;;;;;;;7.13;6.53;;;30.30;84.60;;;;;;5095120;28;20193;-53
2021/04/27 13:02:41;;;;;;;5.82;5.43;;;30.40;85.00;;;;;;5094297;28;20239;-53
2021/04/27 13:05:12;;;;;;;5.65;5.15;;;30.30;85.00;;;;;;5095314;28;20206;-54
2021/04/27 13:07:43;;;;;;;4.63;3.90;;;30.30;85.10;;;;;;5094709;28;20215;-50
2021/04/27 13:10:14;;;;;;;4.53;4.13;;;30.30;85.20;;;;;;5095000;28;20637;-50
2021/04/27 13:12:46;;;;;;;4.90;4.50;;;30.30;85.20;;;;;;5094371;28;20216;-51
2021/04/27 13:15:22;;;;;;;4.45;4.15;;;30.30;85.30;;;;;;5094794;28;20203;-53
2021/04/27 13:17:58;;;;;;;5.10;4.20;;;30.30;85.50;;;;;;5094260;28;20553;-50
2021/04/27 13:20:30;;;;;;;4.60;4.20;;;30.30;85.60;;;;;;5094803;28;20202;-50
2021/04/27 13:23:03;;;;;;;4.50;4.13;;;30.20;85.30;;;;;;5092252;28;20197;-51
2021/04/27 13:25:34;;;;;;;4.82;4.43;;;30.20;85.50;;;;;;5094863;28;20208;-54
2021/04/27 13:28:10;;;;;;;4.97;4.55;;;30.20;85.50;;;;;;5094660;28;20197;-51
2021/04/27 13:30:50;;;;;;;5.15;4.65;;;30.20;85.60;;;;;;5094252;28;20208;-53
2021/04/27 13:33:20;;;;;;;4.70;3.85;;;30.20;86.00;;;;;;5093848;28;20270;-51
2021/04/27 13:35:52;;;;;;;4.65;4.05;;;30.20;85.90;;;;;;5094338;28;20278;-53
2021/04/27 13:38:23;;;;;;;5.78;4.47;;;30.20;86.00;;;;;;5094173;28;20230;-50
2021/04/27 13:40:54;;;;;;;4.32;4.03;;;30.20;86.10;;;;;;5093149;28;20228;-57
2021/04/27 13:43:26;;;;;;;4.13;3.75;;;30.20;86.20;;;;;;5093646;28;20201;-51
2021/04/27 13:45:58;;;;;;;4.80;4.35;;;30.20;86.40;;;;;;5094056;28;20622;-50
2021/04/27 13:48:28;;;;;;;5.10;4.30;;;30.20;86.50;;;;;;5094110;28;20399;-52
2021/04/27 13:51:00;;;;;;;5.28;4.50;;;30.20;86.50;;;;;;5093126;28;20211;-50
2021/04/27 13:53:32;;;;;;;4.47;4.07;;;30.20;86.50;;;;;;5093600;28;20197;-51
2021/04/27 13:56:02;;;;;;;4.57;3.60;;;30.20;86.60;;;;;;5093927;28;20209;-51
2021/04/27 13:58:33;;;;;;;5.38;3.53;;;30.10;86.50;;;;;;5094351;28;20262;-51
2021/04/27 14:01:05;;;;;;;4.35;4.00;;;30.10;86.60;;;;;;5093036;28;20247;-53
2021/04/27 14:03:35;;;;;;;3.90;3.60;;;30.10;86.70;;;;;;5086940;28;20243;-51
2021/04/27 14:06:06;;;;;;;3.65;3.35;;;30.10;86.70;;;;;;5092971;28;20656;-54
2021/04/27 14:08:37;;;;;;;3.75;3.40;;;30.10;86.80;;;;;;5090468;28;20224;-52
2021/04/27 14:11:10;;;;;;;3.60;3.30;;;30.10;87.00;;;;;;5092191;28;20191;-53
2021/04/27 14:13:41;;;;;;;3.78;3.45;;;30.10;87.10;;;;;;5092752;28;20755;-52
2021/04/27 14:16:12;;;;;;;3.55;3.25;;;30.10;87.20;;;;;;5093170;28;20204;-52
2021/04/27 14:18:44;;;;;;;5.93;2.95;;;30.10;87.30;;;;;;5093255;28;20197;-51
2021/04/27 14:21:15;;;;;;;3.65;3.35;;;30.10;87.30;;;;;;5092388;28;20414;-51
2021/04/27 14:23:45;;;;;;;3.72;3.42;;;30.10;87.20;;;;;;5092448;28;20242;-50
2021/04/27 14:26:16;;;;;;;4.22;3.55;;;30.10;87.10;;;;;;5090257;28;20220;-49
2021/04/27 14:28:46;;;;;;;4.20;3.70;;;30.10;87.10;;;;;;5092431;28;20189;-52
2021/04/27 14:31:18;;;;;;;4.45;3.95;;;30.10;87.00;;;;;;5091057;28;20570;-52
2021/04/27 14:33:48;;;;;;;3.97;3.58;;;30.10;87.00;;;;;;5092845;28;20670;-51
2021/04/27 14:36:19;;;;;;;4.38;3.97;;;30.10;87.10;;;;;;5090818;28;20260;-52
2021/04/27 14:38:49;;;;;;;4.45;4.15;;;30.10;87.10;;;;;;5092521;28;20189;-49
2021/04/27 14:41:20;;;;;;;4.45;3.75;;;30.10;87.20;;;;;;5090691;28;20236;-52
2021/04/27 14:43:50;;;;;;;4.20;3.80;;;30.00;87.20;;;;;;5092520;28;20204;-51
2021/04/27 14:46:22;;;;;;;5.57;3.90;;;30.00;87.20;;;;;;5092023;28;20258;-53
2021/04/27 14:48:52;;;;;;;4.72;3.88;;;30.00;87.30;;;;;;5092195;28;20221;-52
2021/04/27 14:51:23;;;;;;;3.67;3.38;;;30.00;87.30;;;;;;5092500;28;20254;-50
2021/04/27 14:53:53;;;;;;;4.10;3.70;;;30.00;87.40;;;;;;5092409;28;20193;-49
2021/04/27 14:56:24;;;;;;;3.65;3.35;;;30.00;87.50;;;;;;5092107;28;20185;-50
2021/04/27 14:58:55;;;;;;;4.10;3.80;;;30.00;87.40;;;;;;5091956;28;20185;-53
2021/04/27 15:01:26;;;;;;;5.20;3.88;;;30.00;87.50;;;;;;5091986;28;20213;-53
2021/04/27 15:03:57;;;;;;;4.07;3.65;;;30.00;87.70;;;;;;5027509;28;20226;-50
2021/04/27 15:06:27;;;;;;;6.15;3.80;;;30.00;87.80;;;;;;4969867;28;20232;-53
2021/04/27 15:08:57;;;;;;;4.35;3.42;;;30.00;87.90;;;;;;4968531;28;20201;-54
2021/04/27 15:11:30;;;;;;;4.50;3.15;;;30.00;88.00;;;;;;4970582;28;20845;-54